sensor_id;sensor_type;location;lat;lon;timestamp;P1;durP1;ratioP1;P2;durP2;ratioP2
56949;SDS011;74437;50.080;19.924;2023-12-04T00:00:21;42.03;;;18.17;;
56949;SDS011;74437;50.080;19.924;2023-12-04T00:02:47;46.83;;;18.25;;
56949;SDS011;74437;50.080;19.924;2023-12-04T00:05:12;45.05;;;18.67;;
56949;SDS011;74437;50.080;19.924;2023-12-04T00:07:37;40.00;;;18.02;;
56949;SDS011;74437;50.080;19.924;2023-12-04T00:10:03;40.88;;;17.65;;
56949;SDS011;74437;50.080;19.924;2023-12-04T00:12:29;40.63;;;17.35;;
56949;SDS011;74437;50.080;19.924;2023-12-04T00:14:54;39.47;;;16.02;;
56949;SDS011;74437;50.080;19.924;2023-12-04T00:17:20;36.75;;;17.02;;
56949;SDS011;74437;50.080;19.924;2023-12-04T00:19:45;36.95;;;16.10;;
56949;SDS011;74437;50.080;19.924;2023-12-04T00:22:10;39.30;;;17.13;;
56949;SDS011;74437;50.080;19.924;2023-12-04T00:24:36;39.20;;;17.70;;
56949;SDS011;74437;50.080;19.924;2023-12-04T00:27:01;41.97;;;18.48;;
56949;SDS011;74437;50.080;19.924;2023-12-04T00:29:27;38.38;;;16.95;;
56949;SDS011;74437;50.080;19.924;2023-12-04T00:31:52;33.72;;;15.75;;
56949;SDS011;74437;50.080;19.924;2023-12-04T00:34:17;43.63;;;15.98;;
56949;SDS011;74437;50.080;19.924;2023-12-04T00:36:43;39.63;;;16.52;;
56949;SDS011;74437;50.080;19.924;2023-12-04T00:39:08;41.05;;;18.17;;
56949;SDS011;74437;50.080;19.924;2023-12-04T00:41:33;35.35;;;16.00;;
56949;SDS011;74437;50.080;19.924;2023-12-04T00:43:59;38.47;;;15.50;;
56949;SDS011;74437;50.080;19.924;2023-12-04T00:46:24;33.33;;;14.80;;
56949;SDS011;74437;50.080;19.924;2023-12-04T00:48:50;36.08;;;16.00;;
56949;SDS011;74437;50.080;19.924;2023-12-04T00:51:16;30.80;;;14.77;;
56949;SDS011;74437;50.080;19.924;2023-12-04T00:53:41;33.13;;;15.25;;
56949;SDS011;74437;50.080;19.924;2023-12-04T00:56:06;35.88;;;15.93;;
56949;SDS011;74437;50.080;19.924;2023-12-04T00:58:32;28.20;;;13.27;;
56949;SDS011;74437;50.080;19.924;2023-12-04T01:00:58;36.78;;;15.55;;
56949;SDS011;74437;50.080;19.924;2023-12-04T01:03:23;32.63;;;14.98;;
56949;SDS011;74437;50.080;19.924;2023-12-04T01:05:51;35.33;;;15.40;;
56949;SDS011;74437;50.080;19.924;2023-12-04T01:08:16;32.40;;;14.25;;
56949;SDS011;74437;50.080;19.924;2023-12-04T01:10:42;35.17;;;15.82;;
56949;SDS011;74437;50.080;19.924;2023-12-04T01:13:08;38.50;;;17.27;;
56949;SDS011;74437;50.080;19.924;2023-12-04T01:15:33;38.72;;;16.00;;
56949;SDS011;74437;50.080;19.924;2023-12-04T01:17:59;32.55;;;13.85;;
56949;SDS011;74437;50.080;19.924;2023-12-04T01:20:25;32.53;;;13.68;;
56949;SDS011;74437;50.080;19.924;2023-12-04T01:22:51;32.10;;;15.27;;
56949;SDS011;74437;50.080;19.924;2023-12-04T01:25:16;34.13;;;15.07;;
56949;SDS011;74437;50.080;19.924;2023-12-04T01:27:42;29.48;;;13.80;;
56949;SDS011;74437;50.080;19.924;2023-12-04T01:30:07;27.38;;;14.77;;
56949;SDS011;74437;50.080;19.924;2023-12-04T01:32:34;32.72;;;14.98;;
56949;SDS011;74437;50.080;19.924;2023-12-04T01:34:59;33.08;;;13.88;;
56949;SDS011;74437;50.080;19.924;2023-12-04T01:37:25;21.05;;;9.90;;
56949;SDS011;74437;50.080;19.924;2023-12-04T01:39:50;38.30;;;16.52;;
56949;SDS011;74437;50.080;19.924;2023-12-04T01:42:15;32.83;;;13.73;;
56949;SDS011;74437;50.080;19.924;2023-12-04T01:44:41;38.05;;;14.85;;
56949;SDS011;74437;50.080;19.924;2023-12-04T01:47:06;23.73;;;11.57;;
56949;SDS011;74437;50.080;19.924;2023-12-04T01:49:32;36.20;;;16.08;;
56949;SDS011;74437;50.080;19.924;2023-12-04T01:51:58;40.83;;;16.67;;
56949;SDS011;74437;50.080;19.924;2023-12-04T01:54:23;39.95;;;16.70;;
56949;SDS011;74437;50.080;19.924;2023-12-04T01:56:49;30.25;;;15.55;;
56949;SDS011;74437;50.080;19.924;2023-12-04T01:59:15;32.13;;;14.82;;
56949;SDS011;74437;50.080;19.924;2023-12-04T02:01:40;9.05;;;4.88;;
56949;SDS011;74437;50.080;19.924;2023-12-04T02:04:07;15.32;;;5.93;;
56949;SDS011;74437;50.080;19.924;2023-12-04T02:06:32;27.10;;;11.60;;
56949;SDS011;74437;50.080;19.924;2023-12-04T02:08:58;28.92;;;14.27;;
56949;SDS011;74437;50.080;19.924;2023-12-04T02:11:23;38.67;;;15.50;;
56949;SDS011;74437;50.080;19.924;2023-12-04T02:13:49;37.22;;;16.67;;
56949;SDS011;74437;50.080;19.924;2023-12-04T02:16:15;33.10;;;14.88;;
56949;SDS011;74437;50.080;19.924;2023-12-04T02:18:42;28.00;;;16.27;;
56949;SDS011;74437;50.080;19.924;2023-12-04T02:21:08;39.85;;;15.52;;
56949;SDS011;74437;50.080;19.924;2023-12-04T02:23:33;35.20;;;15.10;;
56949;SDS011;74437;50.080;19.924;2023-12-04T02:25:59;31.23;;;14.30;;
56949;SDS011;74437;50.080;19.924;2023-12-04T02:28:30;36.72;;;16.55;;
56949;SDS011;74437;50.080;19.924;2023-12-04T02:30:59;39.05;;;15.45;;
56949;SDS011;74437;50.080;19.924;2023-12-04T02:33:25;33.97;;;16.38;;
56949;SDS011;74437;50.080;19.924;2023-12-04T02:35:52;35.15;;;16.00;;
56949;SDS011;74437;50.080;19.924;2023-12-04T02:38:19;35.88;;;16.63;;
56949;SDS011;74437;50.080;19.924;2023-12-04T02:40:45;43.00;;;18.52;;
56949;SDS011;74437;50.080;19.924;2023-12-04T02:43:11;31.15;;;16.20;;
56949;SDS011;74437;50.080;19.924;2023-12-04T02:45:36;33.85;;;16.70;;
56949;SDS011;74437;50.080;19.924;2023-12-04T02:48:02;33.30;;;15.05;;
56949;SDS011;74437;50.080;19.924;2023-12-04T02:50:27;35.88;;;17.23;;
56949;SDS011;74437;50.080;19.924;2023-12-04T02:52:52;32.22;;;15.20;;
56949;SDS011;74437;50.080;19.924;2023-12-04T02:55:18;31.95;;;16.20;;
56949;SDS011;74437;50.080;19.924;2023-12-04T02:57:44;32.75;;;15.20;;
56949;SDS011;74437;50.080;19.924;2023-12-04T03:00:09;30.48;;;14.48;;
56949;SDS011;74437;50.080;19.924;2023-12-04T03:02:35;34.00;;;15.25;;
56949;SDS011;74437;50.080;19.924;2023-12-04T03:05:00;31.08;;;15.25;;
56949;SDS011;74437;50.080;19.924;2023-12-04T03:07:26;34.03;;;14.20;;
56949;SDS011;74437;50.080;19.924;2023-12-04T03:09:52;34.72;;;16.70;;
56949;SDS011;74437;50.080;19.924;2023-12-04T03:12:17;31.92;;;15.93;;
56949;SDS011;74437;50.080;19.924;2023-12-04T03:14:42;35.08;;;16.77;;
56949;SDS011;74437;50.080;19.924;2023-12-04T03:17:08;36.55;;;16.13;;
56949;SDS011;74437;50.080;19.924;2023-12-04T03:19:33;33.90;;;15.70;;
56949;SDS011;74437;50.080;19.924;2023-12-04T03:21:59;30.58;;;15.52;;
56949;SDS011;74437;50.080;19.924;2023-12-04T03:24:25;26.58;;;13.15;;
56949;SDS011;74437;50.080;19.924;2023-12-04T03:26:51;31.83;;;14.85;;
56949;SDS011;74437;50.080;19.924;2023-12-04T03:29:16;29.88;;;14.98;;
56949;SDS011;74437;50.080;19.924;2023-12-04T03:31:41;29.77;;;15.07;;
56949;SDS011;74437;50.080;19.924;2023-12-04T03:34:07;31.90;;;13.70;;
56949;SDS011;74437;50.080;19.924;2023-12-04T03:36:32;27.20;;;13.82;;
56949;SDS011;74437;50.080;19.924;2023-12-04T03:38:57;27.85;;;14.27;;
56949;SDS011;74437;50.080;19.924;2023-12-04T03:41:22;30.33;;;13.63;;
56949;SDS011;74437;50.080;19.924;2023-12-04T03:43:48;22.92;;;12.70;;
56949;SDS011;74437;50.080;19.924;2023-12-04T03:46:13;29.55;;;14.25;;
56949;SDS011;74437;50.080;19.924;2023-12-04T03:48:39;28.30;;;14.98;;
56949;SDS011;74437;50.080;19.924;2023-12-04T03:51:04;30.50;;;14.90;;
56949;SDS011;74437;50.080;19.924;2023-12-04T03:53:30;22.50;;;10.48;;
56949;SDS011;74437;50.080;19.924;2023-12-04T03:55:57;27.48;;;13.82;;
56949;SDS011;74437;50.080;19.924;2023-12-04T03:58:23;32.05;;;13.23;;
56949;SDS011;74437;50.080;19.924;2023-12-04T04:00:48;31.85;;;13.32;;
56949;SDS011;74437;50.080;19.924;2023-12-04T04:03:14;29.45;;;14.25;;
56949;SDS011;74437;50.080;19.924;2023-12-04T04:05:40;24.88;;;12.93;;
56949;SDS011;74437;50.080;19.924;2023-12-04T04:08:05;25.52;;;12.98;;
56949;SDS011;74437;50.080;19.924;2023-12-04T04:10:32;30.08;;;14.00;;
56949;SDS011;74437;50.080;19.924;2023-12-04T04:12:57;24.08;;;13.65;;
56949;SDS011;74437;50.080;19.924;2023-12-04T04:15:23;28.33;;;13.38;;
56949;SDS011;74437;50.080;19.924;2023-12-04T04:17:48;22.80;;;13.57;;
56949;SDS011;74437;50.080;19.924;2023-12-04T04:20:14;24.48;;;13.40;;
56949;SDS011;74437;50.080;19.924;2023-12-04T04:22:39;26.98;;;14.63;;
56949;SDS011;74437;50.080;19.924;2023-12-04T04:25:06;24.70;;;13.25;;
56949;SDS011;74437;50.080;19.924;2023-12-04T04:27:32;30.30;;;14.35;;
56949;SDS011;74437;50.080;19.924;2023-12-04T04:29:58;27.70;;;15.00;;
56949;SDS011;74437;50.080;19.924;2023-12-04T04:32:23;30.98;;;14.40;;
56949;SDS011;74437;50.080;19.924;2023-12-04T04:34:49;11.02;;;6.22;;
56949;SDS011;74437;50.080;19.924;2023-12-04T04:37:14;36.15;;;16.67;;
56949;SDS011;74437;50.080;19.924;2023-12-04T04:39:40;27.85;;;15.25;;
56949;SDS011;74437;50.080;19.924;2023-12-04T04:42:05;31.27;;;16.00;;
56949;SDS011;74437;50.080;19.924;2023-12-04T04:44:31;30.85;;;15.82;;
56949;SDS011;74437;50.080;19.924;2023-12-04T04:46:56;30.65;;;16.70;;
56949;SDS011;74437;50.080;19.924;2023-12-04T04:49:21;37.25;;;16.95;;
56949;SDS011;74437;50.080;19.924;2023-12-04T04:51:47;25.77;;;13.25;;
56949;SDS011;74437;50.080;19.924;2023-12-04T04:54:12;26.67;;;14.93;;
56949;SDS011;74437;50.080;19.924;2023-12-04T04:56:37;31.35;;;16.15;;
56949;SDS011;74437;50.080;19.924;2023-12-04T04:59:03;38.10;;;16.27;;
56949;SDS011;74437;50.080;19.924;2023-12-04T05:01:28;34.00;;;17.23;;
56949;SDS011;74437;50.080;19.924;2023-12-04T05:03:53;20.10;;;10.25;;
56949;SDS011;74437;50.080;19.924;2023-12-04T05:06:19;35.55;;;18.20;;
56949;SDS011;74437;50.080;19.924;2023-12-04T05:08:44;32.50;;;16.08;;
56949;SDS011;74437;50.080;19.924;2023-12-04T05:11:09;35.28;;;17.88;;
56949;SDS011;74437;50.080;19.924;2023-12-04T05:13:35;33.58;;;17.10;;
56949;SDS011;74437;50.080;19.924;2023-12-04T05:16:00;39.03;;;18.67;;
56949;SDS011;74437;50.080;19.924;2023-12-04T05:18:25;39.40;;;18.10;;
56949;SDS011;74437;50.080;19.924;2023-12-04T05:20:51;39.42;;;18.25;;
56949;SDS011;74437;50.080;19.924;2023-12-04T05:23:16;34.10;;;15.85;;
56949;SDS011;74437;50.080;19.924;2023-12-04T05:25:42;39.13;;;18.58;;
56949;SDS011;74437;50.080;19.924;2023-12-04T05:28:07;37.15;;;18.38;;
56949;SDS011;74437;50.080;19.924;2023-12-04T05:30:33;40.08;;;18.98;;
56949;SDS011;74437;50.080;19.924;2023-12-04T05:32:59;32.80;;;17.15;;
56949;SDS011;74437;50.080;19.924;2023-12-04T05:35:24;38.92;;;18.80;;
56949;SDS011;74437;50.080;19.924;2023-12-04T05:37:50;34.13;;;18.25;;
56949;SDS011;74437;50.080;19.924;2023-12-04T05:40:15;35.42;;;18.15;;
56949;SDS011;74437;50.080;19.924;2023-12-04T05:42:40;34.50;;;18.48;;
56949;SDS011;74437;50.080;19.924;2023-12-04T05:45:06;32.00;;;18.00;;
56949;SDS011;74437;50.080;19.924;2023-12-04T05:47:33;37.47;;;19.05;;
56949;SDS011;74437;50.080;19.924;2023-12-04T05:49:59;35.47;;;17.73;;
56949;SDS011;74437;50.080;19.924;2023-12-04T05:52:25;34.03;;;17.67;;
56949;SDS011;74437;50.080;19.924;2023-12-04T05:54:50;33.28;;;16.95;;
56949;SDS011;74437;50.080;19.924;2023-12-04T05:57:16;34.47;;;17.40;;
56949;SDS011;74437;50.080;19.924;2023-12-04T05:59:41;36.38;;;17.73;;
56949;SDS011;74437;50.080;19.924;2023-12-04T06:02:07;32.58;;;17.25;;
56949;SDS011;74437;50.080;19.924;2023-12-04T06:04:32;32.13;;;17.05;;
56949;SDS011;74437;50.080;19.924;2023-12-04T06:06:57;34.40;;;18.10;;
56949;SDS011;74437;50.080;19.924;2023-12-04T06:09:23;38.42;;;18.77;;
56949;SDS011;74437;50.080;19.924;2023-12-04T06:11:48;35.60;;;17.23;;
56949;SDS011;74437;50.080;19.924;2023-12-04T06:14:13;32.15;;;16.33;;
56949;SDS011;74437;50.080;19.924;2023-12-04T06:16:39;37.30;;;18.40;;
56949;SDS011;74437;50.080;19.924;2023-12-04T06:19:04;34.80;;;18.42;;
56949;SDS011;74437;50.080;19.924;2023-12-04T06:21:30;34.03;;;17.60;;
56949;SDS011;74437;50.080;19.924;2023-12-04T06:23:56;39.20;;;19.25;;
56949;SDS011;74437;50.080;19.924;2023-12-04T06:26:22;35.45;;;18.50;;
56949;SDS011;74437;50.080;19.924;2023-12-04T06:28:48;37.05;;;18.95;;
56949;SDS011;74437;50.080;19.924;2023-12-04T06:31:13;35.45;;;18.98;;
56949;SDS011;74437;50.080;19.924;2023-12-04T06:33:39;38.60;;;19.23;;
56949;SDS011;74437;50.080;19.924;2023-12-04T06:36:05;37.90;;;18.90;;
56949;SDS011;74437;50.080;19.924;2023-12-04T06:38:31;39.55;;;18.35;;
56949;SDS011;74437;50.080;19.924;2023-12-04T06:41:00;37.13;;;19.60;;
56949;SDS011;74437;50.080;19.924;2023-12-04T06:43:26;35.92;;;18.83;;
56949;SDS011;74437;50.080;19.924;2023-12-04T06:45:53;39.33;;;18.70;;
56949;SDS011;74437;50.080;19.924;2023-12-04T06:48:22;36.20;;;18.77;;
56949;SDS011;74437;50.080;19.924;2023-12-04T06:50:47;35.65;;;17.60;;
56949;SDS011;74437;50.080;19.924;2023-12-04T06:53:13;40.45;;;20.17;;
56949;SDS011;74437;50.080;19.924;2023-12-04T06:55:38;35.70;;;18.92;;
56949;SDS011;74437;50.080;19.924;2023-12-04T06:58:03;42.75;;;19.73;;
56949;SDS011;74437;50.080;19.924;2023-12-04T07:00:29;37.47;;;18.55;;
56949;SDS011;74437;50.080;19.924;2023-12-04T07:02:55;36.78;;;20.75;;
56949;SDS011;74437;50.080;19.924;2023-12-04T07:05:20;37.85;;;20.38;;
56949;SDS011;74437;50.080;19.924;2023-12-04T07:07:46;35.75;;;18.92;;
56949;SDS011;74437;50.080;19.924;2023-12-04T07:10:11;35.25;;;17.58;;
56949;SDS011;74437;50.080;19.924;2023-12-04T07:12:39;37.63;;;19.17;;
56949;SDS011;74437;50.080;19.924;2023-12-04T07:15:08;32.35;;;15.02;;
56949;SDS011;74437;50.080;19.924;2023-12-04T07:17:34;38.78;;;19.90;;
56949;SDS011;74437;50.080;19.924;2023-12-04T07:20:01;31.90;;;18.08;;
56949;SDS011;74437;50.080;19.924;2023-12-04T07:22:26;37.53;;;19.40;;
56949;SDS011;74437;50.080;19.924;2023-12-04T07:24:52;38.38;;;18.77;;
56949;SDS011;74437;50.080;19.924;2023-12-04T07:27:17;38.33;;;18.80;;
56949;SDS011;74437;50.080;19.924;2023-12-04T07:29:42;36.63;;;18.65;;
56949;SDS011;74437;50.080;19.924;2023-12-04T07:32:08;33.70;;;18.05;;
56949;SDS011;74437;50.080;19.924;2023-12-04T07:34:33;35.00;;;18.63;;
56949;SDS011;74437;50.080;19.924;2023-12-04T07:36:59;42.08;;;19.55;;
56949;SDS011;74437;50.080;19.924;2023-12-04T07:39:24;34.00;;;17.48;;
56949;SDS011;74437;50.080;19.924;2023-12-04T07:41:49;34.25;;;18.35;;
56949;SDS011;74437;50.080;19.924;2023-12-04T07:44:15;35.83;;;18.00;;
56949;SDS011;74437;50.080;19.924;2023-12-04T07:46:40;36.22;;;18.60;;
56949;SDS011;74437;50.080;19.924;2023-12-04T07:49:05;40.67;;;19.85;;
56949;SDS011;74437;50.080;19.924;2023-12-04T07:51:31;40.53;;;21.00;;
56949;SDS011;74437;50.080;19.924;2023-12-04T07:53:57;41.88;;;19.95;;
56949;SDS011;74437;50.080;19.924;2023-12-04T07:56:23;39.17;;;19.48;;
56949;SDS011;74437;50.080;19.924;2023-12-04T07:58:48;41.35;;;19.98;;
56949;SDS011;74437;50.080;19.924;2023-12-04T08:01:13;35.22;;;19.30;;
56949;SDS011;74437;50.080;19.924;2023-12-04T08:03:39;36.38;;;18.90;;
56949;SDS011;74437;50.080;19.924;2023-12-04T08:06:05;36.75;;;18.25;;
56949;SDS011;74437;50.080;19.924;2023-12-04T08:08:30;36.28;;;19.02;;
56949;SDS011;74437;50.080;19.924;2023-12-04T08:10:57;33.58;;;18.73;;
56949;SDS011;74437;50.080;19.924;2023-12-04T08:13:22;35.63;;;17.83;;
56949;SDS011;74437;50.080;19.924;2023-12-04T08:15:47;34.03;;;19.63;;
56949;SDS011;74437;50.080;19.924;2023-12-04T08:18:13;38.75;;;20.10;;
56949;SDS011;74437;50.080;19.924;2023-12-04T08:20:38;38.10;;;19.48;;
56949;SDS011;74437;50.080;19.924;2023-12-04T08:23:03;40.28;;;20.25;;
56949;SDS011;74437;50.080;19.924;2023-12-04T08:25:29;36.47;;;19.23;;
56949;SDS011;74437;50.080;19.924;2023-12-04T08:27:55;33.78;;;17.45;;
56949;SDS011;74437;50.080;19.924;2023-12-04T08:30:20;33.95;;;17.95;;
56949;SDS011;74437;50.080;19.924;2023-12-04T08:32:45;36.33;;;19.42;;
56949;SDS011;74437;50.080;19.924;2023-12-04T08:35:12;34.72;;;17.20;;
56949;SDS011;74437;50.080;19.924;2023-12-04T08:37:37;30.85;;;17.60;;
56949;SDS011;74437;50.080;19.924;2023-12-04T08:40:02;28.83;;;14.82;;
56949;SDS011;74437;50.080;19.924;2023-12-04T08:42:28;25.52;;;14.40;;
56949;SDS011;74437;50.080;19.924;2023-12-04T08:44:54;25.10;;;13.63;;
56949;SDS011;74437;50.080;19.924;2023-12-04T08:47:20;26.77;;;14.63;;
56949;SDS011;74437;50.080;19.924;2023-12-04T08:49:45;26.80;;;14.98;;
56949;SDS011;74437;50.080;19.924;2023-12-04T08:52:11;25.30;;;15.82;;
56949;SDS011;74437;50.080;19.924;2023-12-04T08:54:40;28.05;;;16.55;;
56949;SDS011;74437;50.080;19.924;2023-12-04T08:57:08;27.13;;;15.88;;
56949;SDS011;74437;50.080;19.924;2023-12-04T08:59:34;36.35;;;17.60;;
56949;SDS011;74437;50.080;19.924;2023-12-04T09:01:59;28.27;;;16.48;;
56949;SDS011;74437;50.080;19.924;2023-12-04T09:04:28;19.25;;;12.20;;
56949;SDS011;74437;50.080;19.924;2023-12-04T09:06:55;26.23;;;15.20;;
56949;SDS011;74437;50.080;19.924;2023-12-04T09:09:20;19.60;;;11.65;;
56949;SDS011;74437;50.080;19.924;2023-12-04T09:11:46;19.67;;;11.75;;
56949;SDS011;74437;50.080;19.924;2023-12-04T09:14:14;19.70;;;10.98;;
56949;SDS011;74437;50.080;19.924;2023-12-04T09:16:39;17.88;;;10.52;;
56949;SDS011;74437;50.080;19.924;2023-12-04T09:19:05;18.88;;;11.20;;
56949;SDS011;74437;50.080;19.924;2023-12-04T09:21:30;17.38;;;10.95;;
56949;SDS011;74437;50.080;19.924;2023-12-04T09:23:55;18.23;;;10.60;;
56949;SDS011;74437;50.080;19.924;2023-12-04T09:26:21;16.90;;;10.52;;
56949;SDS011;74437;50.080;19.924;2023-12-04T09:28:46;17.02;;;10.95;;
56949;SDS011;74437;50.080;19.924;2023-12-04T09:31:11;18.70;;;10.95;;
56949;SDS011;74437;50.080;19.924;2023-12-04T09:33:37;19.90;;;11.50;;
56949;SDS011;74437;50.080;19.924;2023-12-04T09:36:02;21.48;;;11.90;;
56949;SDS011;74437;50.080;19.924;2023-12-04T09:38:28;19.67;;;11.13;;
56949;SDS011;74437;50.080;19.924;2023-12-04T09:40:54;18.67;;;11.85;;
56949;SDS011;74437;50.080;19.924;2023-12-04T09:43:23;16.80;;;11.07;;
56949;SDS011;74437;50.080;19.924;2023-12-04T09:45:50;16.10;;;10.60;;
56949;SDS011;74437;50.080;19.924;2023-12-04T09:48:16;15.68;;;9.98;;
56949;SDS011;74437;50.080;19.924;2023-12-04T09:50:41;15.80;;;9.80;;
56949;SDS011;74437;50.080;19.924;2023-12-04T09:53:08;12.55;;;8.35;;
56949;SDS011;74437;50.080;19.924;2023-12-04T09:55:36;13.02;;;8.95;;
56949;SDS011;74437;50.080;19.924;2023-12-04T09:58:02;12.93;;;8.75;;
56949;SDS011;74437;50.080;19.924;2023-12-04T10:00:29;16.53;;;9.33;;
56949;SDS011;74437;50.080;19.924;2023-12-04T10:02:56;15.25;;;9.27;;
56949;SDS011;74437;50.080;19.924;2023-12-04T10:05:22;13.48;;;9.48;;
56949;SDS011;74437;50.080;19.924;2023-12-04T10:07:48;12.88;;;8.57;;
56949;SDS011;74437;50.080;19.924;2023-12-04T10:10:14;12.80;;;8.75;;
56949;SDS011;74437;50.080;19.924;2023-12-04T10:12:39;12.95;;;8.80;;
56949;SDS011;74437;50.080;19.924;2023-12-04T10:15:05;16.90;;;9.85;;
56949;SDS011;74437;50.080;19.924;2023-12-04T10:17:39;14.90;;;9.27;;
56949;SDS011;74437;50.080;19.924;2023-12-04T10:20:15;16.58;;;9.95;;
56949;SDS011;74437;50.080;19.924;2023-12-04T10:22:52;15.40;;;9.20;;
56949;SDS011;74437;50.080;19.924;2023-12-04T10:25:21;14.98;;;9.70;;
56949;SDS011;74437;50.080;19.924;2023-12-04T10:27:48;16.63;;;9.88;;
56949;SDS011;74437;50.080;19.924;2023-12-04T10:32:56;14.80;;;9.68;;
56949;SDS011;74437;50.080;19.924;2023-12-04T10:35:25;14.73;;;9.85;;
56949;SDS011;74437;50.080;19.924;2023-12-04T10:37:54;13.07;;;8.40;;
56949;SDS011;74437;50.080;19.924;2023-12-04T10:40:23;14.50;;;9.43;;
56949;SDS011;74437;50.080;19.924;2023-12-04T10:42:50;13.63;;;8.93;;
56949;SDS011;74437;50.080;19.924;2023-12-04T10:45:15;14.85;;;8.50;;
56949;SDS011;74437;50.080;19.924;2023-12-04T10:47:41;12.63;;;7.97;;
56949;SDS011;74437;50.080;19.924;2023-12-04T10:50:09;13.27;;;8.35;;
56949;SDS011;74437;50.080;19.924;2023-12-04T10:52:34;13.10;;;8.88;;
56949;SDS011;74437;50.080;19.924;2023-12-04T10:55:01;14.88;;;8.90;;
56949;SDS011;74437;50.080;19.924;2023-12-04T10:57:27;13.60;;;9.13;;
56949;SDS011;74437;50.080;19.924;2023-12-04T10:59:57;15.18;;;9.75;;
56949;SDS011;74437;50.080;19.924;2023-12-04T11:02:26;10.52;;;7.57;;
56949;SDS011;74437;50.080;19.924;2023-12-04T11:04:58;9.73;;;6.80;;
56949;SDS011;74437;50.080;19.924;2023-12-04T11:07:30;11.15;;;7.70;;
56949;SDS011;74437;50.080;19.924;2023-12-04T11:09:58;13.25;;;7.95;;
56949;SDS011;74437;50.080;19.924;2023-12-04T11:12:25;12.27;;;7.20;;
56949;SDS011;74437;50.080;19.924;2023-12-04T11:14:56;13.38;;;7.07;;
56949;SDS011;74437;50.080;19.924;2023-12-04T11:17:27;11.40;;;7.13;;
56949;SDS011;74437;50.080;19.924;2023-12-04T11:19:59;11.95;;;7.55;;
56949;SDS011;74437;50.080;19.924;2023-12-04T11:22:32;13.32;;;7.38;;
56949;SDS011;74437;50.080;19.924;2023-12-04T11:25:00;11.50;;;6.43;;
56949;SDS011;74437;50.080;19.924;2023-12-04T11:27:30;13.43;;;7.22;;
56949;SDS011;74437;50.080;19.924;2023-12-04T11:29:57;12.27;;;6.97;;
56949;SDS011;74437;50.080;19.924;2023-12-04T11:32:24;11.77;;;7.10;;
56949;SDS011;74437;50.080;19.924;2023-12-04T11:34:55;11.73;;;6.28;;
56949;SDS011;74437;50.080;19.924;2023-12-04T11:37:24;12.57;;;7.75;;
56949;SDS011;74437;50.080;19.924;2023-12-04T11:39:51;12.07;;;7.15;;
56949;SDS011;74437;50.080;19.924;2023-12-04T11:42:21;11.55;;;7.25;;
56949;SDS011;74437;50.080;19.924;2023-12-04T11:44:48;13.95;;;7.10;;
56949;SDS011;74437;50.080;19.924;2023-12-04T11:47:14;14.82;;;7.95;;
56949;SDS011;74437;50.080;19.924;2023-12-04T11:49:40;14.18;;;7.90;;
56949;SDS011;74437;50.080;19.924;2023-12-04T11:52:06;15.77;;;8.25;;
56949;SDS011;74437;50.080;19.924;2023-12-04T12:02:44;14.77;;;7.10;;
56949;SDS011;74437;50.080;19.924;2023-12-04T12:05:13;13.35;;;7.40;;
56949;SDS011;74437;50.080;19.924;2023-12-04T12:07:38;13.63;;;7.97;;
56949;SDS011;74437;50.080;19.924;2023-12-04T12:10:04;16.92;;;7.88;;
56949;SDS011;74437;50.080;19.924;2023-12-04T12:12:30;14.23;;;8.13;;
56949;SDS011;74437;50.080;19.924;2023-12-04T12:14:57;11.05;;;6.20;;
56949;SDS011;74437;50.080;19.924;2023-12-04T12:17:22;12.90;;;7.05;;
56949;SDS011;74437;50.080;19.924;2023-12-04T12:19:47;11.63;;;6.47;;
56949;SDS011;74437;50.080;19.924;2023-12-04T12:22:13;10.02;;;5.90;;
56949;SDS011;74437;50.080;19.924;2023-12-04T12:24:39;13.20;;;7.18;;
56949;SDS011;74437;50.080;19.924;2023-12-04T12:27:05;12.90;;;6.40;;
56949;SDS011;74437;50.080;19.924;2023-12-04T12:29:30;13.68;;;6.70;;
56949;SDS011;74437;50.080;19.924;2023-12-04T12:31:56;11.73;;;6.63;;
56949;SDS011;74437;50.080;19.924;2023-12-04T12:34:21;11.13;;;6.35;;
56949;SDS011;74437;50.080;19.924;2023-12-04T12:36:46;12.48;;;7.28;;
56949;SDS011;74437;50.080;19.924;2023-12-04T12:39:12;13.10;;;7.20;;
56949;SDS011;74437;50.080;19.924;2023-12-04T12:41:38;16.83;;;8.90;;
56949;SDS011;74437;50.080;19.924;2023-12-04T12:44:04;13.55;;;7.30;;
56949;SDS011;74437;50.080;19.924;2023-12-04T12:46:30;12.65;;;7.25;;
56949;SDS011;74437;50.080;19.924;2023-12-04T12:48:56;13.95;;;6.90;;
56949;SDS011;74437;50.080;19.924;2023-12-04T12:51:23;12.57;;;6.22;;
56949;SDS011;74437;50.080;19.924;2023-12-04T12:53:49;5.75;;;3.20;;
56949;SDS011;74437;50.080;19.924;2023-12-04T12:56:14;12.40;;;7.22;;
56949;SDS011;74437;50.080;19.924;2023-12-04T12:58:40;14.77;;;8.13;;
56949;SDS011;74437;50.080;19.924;2023-12-04T13:01:09;25.42;;;8.13;;
56949;SDS011;74437;50.080;19.924;2023-12-04T13:03:35;17.00;;;7.85;;
56949;SDS011;74437;50.080;19.924;2023-12-04T13:06:01;13.65;;;6.57;;
56949;SDS011;74437;50.080;19.924;2023-12-04T13:08:26;15.23;;;8.15;;
56949;SDS011;74437;50.080;19.924;2023-12-04T13:10:52;17.05;;;7.93;;
56949;SDS011;74437;50.080;19.924;2023-12-04T13:13:18;13.55;;;7.35;;
56949;SDS011;74437;50.080;19.924;2023-12-04T13:15:43;12.60;;;6.80;;
56949;SDS011;74437;50.080;19.924;2023-12-04T13:18:09;16.70;;;8.18;;
56949;SDS011;74437;50.080;19.924;2023-12-04T13:20:34;16.90;;;8.60;;
56949;SDS011;74437;50.080;19.924;2023-12-04T13:23:00;15.05;;;7.20;;
56949;SDS011;74437;50.080;19.924;2023-12-04T13:25:26;14.02;;;7.55;;
56949;SDS011;74437;50.080;19.924;2023-12-04T13:27:51;15.68;;;8.32;;
56949;SDS011;74437;50.080;19.924;2023-12-04T13:30:17;14.95;;;8.10;;
56949;SDS011;74437;50.080;19.924;2023-12-04T13:32:42;17.50;;;9.00;;
56949;SDS011;74437;50.080;19.924;2023-12-04T13:35:08;19.65;;;8.38;;
56949;SDS011;74437;50.080;19.924;2023-12-04T13:37:33;18.58;;;8.32;;
56949;SDS011;74437;50.080;19.924;2023-12-04T13:40:01;21.98;;;8.85;;
56949;SDS011;74437;50.080;19.924;2023-12-04T13:42:37;23.80;;;7.47;;
56949;SDS011;74437;50.080;19.924;2023-12-04T13:45:21;17.95;;;9.20;;
56949;SDS011;74437;50.080;19.924;2023-12-04T13:47:47;23.40;;;9.60;;
56949;SDS011;74437;50.080;19.924;2023-12-04T13:50:13;20.65;;;9.65;;
56949;SDS011;74437;50.080;19.924;2023-12-04T13:52:38;18.77;;;9.23;;
56949;SDS011;74437;50.080;19.924;2023-12-04T13:55:04;16.88;;;7.68;;
56949;SDS011;74437;50.080;19.924;2023-12-04T13:57:44;17.67;;;9.23;;
56949;SDS011;74437;50.080;19.924;2023-12-04T14:00:28;16.95;;;8.13;;
56949;SDS011;74437;50.080;19.924;2023-12-04T14:02:53;23.33;;;10.07;;
56949;SDS011;74437;50.080;19.924;2023-12-04T14:05:25;20.52;;;10.13;;
56949;SDS011;74437;50.080;19.924;2023-12-04T14:07:50;19.33;;;10.20;;
56949;SDS011;74437;50.080;19.924;2023-12-04T14:10:16;21.33;;;9.63;;
56949;SDS011;74437;50.080;19.924;2023-12-04T14:12:41;22.65;;;11.18;;
56949;SDS011;74437;50.080;19.924;2023-12-04T14:15:06;19.88;;;9.82;;
56949;SDS011;74437;50.080;19.924;2023-12-04T14:17:32;22.17;;;11.15;;